Time;durP1;ratioP1;P1;durP2;ratioP2;P2;SDS_P1;SDS_P2;PMS_P1;PMS_P2;Temp;Humidity;BMP_temperature;BMP_pressure;BME280_temperature;BME280_humidity;BME280_pressure;Samples;Min_cycle;Max_cycle;Signal;HPM_P1;HPM_P2
2022/05/09 00:00:08;;;;;;;14.80;4.60;;;8.00;99.90;;;;;;5032180;28;20165;-62
2022/05/09 00:02:34;;;;;;;14.82;4.80;;;7.90;99.90;;;;;;5031773;28;20548;-60
2022/05/09 00:05:00;;;;;;;13.90;4.68;;;7.90;99.90;;;;;;5031132;28;20049;-63
2022/05/09 00:07:26;;;;;;;16.45;4.88;;;7.90;99.90;;;;;;5014490;28;20056;-66
2022/05/09 00:09:51;;;;;;;11.38;4.10;;;7.90;99.90;;;;;;5030596;28;20088;-64
2022/05/09 00:12:18;;;;;;;16.85;4.50;;;7.90;99.90;;;;;;5031952;28;20128;-61
2022/05/09 00:14:43;;;;;;;17.25;4.85;;;7.80;99.90;;;;;;5030543;28;20045;-61
2022/05/09 00:17:10;;;;;;;10.88;4.22;;;7.90;99.90;;;;;;5030530;28;20411;-62
2022/05/09 00:19:35;;;;;;;12.27;4.97;;;7.90;99.90;;;;;;5030204;28;20541;-61
2022/05/09 00:22:02;;;;;;;14.38;4.40;;;7.90;99.90;;;;;;5031553;28;20060;-61
2022/05/09 00:24:27;;;;;;;12.38;4.88;;;7.90;99.90;;;;;;5031290;28;20053;-66
2022/05/09 00:26:53;;;;;;;14.05;4.68;;;7.80;99.90;;;;;;4997521;28;20049;-61
2022/05/09 00:29:20;;;;;;;16.63;5.32;;;7.80;99.90;;;;;;5031691;28;20082;-61
2022/05/09 00:31:48;;;;;;;17.38;5.10;;;7.80;99.90;;;;;;5031132;28;20049;-61
2022/05/09 00:34:19;;;;;;;14.02;4.38;;;7.70;99.90;;;;;;5047177;28;20046;-61
2022/05/09 00:36:46;;;;;;;16.83;4.90;;;7.80;99.90;;;;;;5031294;28;20060;-62
2022/05/09 00:39:12;;;;;;;18.30;4.70;;;7.80;99.90;;;;;;5031619;28;20163;-61
2022/05/09 00:41:40;;;;;;;13.90;4.50;;;7.80;99.90;;;;;;5031252;28;20055;-63
2022/05/09 00:44:15;;;;;;;12.07;4.25;;;7.80;99.90;;;;;;5030117;28;20624;-61
2022/05/09 00:46:42;;;;;;;;;;;7.80;99.90;;;;;;5031566;28;20061;-61
2022/05/09 00:49:19;;;;;;;13.52;4.60;;;7.80;99.90;;;;;;5013952;28;19921;-61
2022/05/09 00:52:12;;;;;;;17.67;4.85;;;7.80;99.90;;;;;;5030973;28;20226;-61
2022/05/09 00:54:50;;;;;;;15.32;4.93;;;7.70;99.90;;;;;;5024296;28;20057;-61
2022/05/09 00:57:27;;;;;;;18.50;5.10;;;7.70;99.90;;;;;;5031173;28;20522;-62
2022/05/09 00:59:57;;;;;;;16.63;4.85;;;7.60;99.90;;;;;;5030008;28;20045;-62
2022/05/09 01:02:24;;;;;;;12.15;4.60;;;7.60;99.90;;;;;;5031357;28;20172;-60
2022/05/09 01:04:55;;;;;;;15.57;4.80;;;7.60;99.90;;;;;;5030905;28;20056;-61
2022/05/09 01:07:22;;;;;;;13.85;4.95;;;7.60;99.90;;;;;;5030907;28;20230;-62
2022/05/09 01:09:48;;;;;;;18.70;4.90;;;7.50;99.90;;;;;;5029573;28;20057;-60
2022/05/09 01:12:19;;;;;;;14.98;4.72;;;7.60;99.90;;;;;;5030054;28;20394;-62
2022/05/09 01:14:45;;;;;;;12.43;4.30;;;7.60;99.90;;;;;;5029932;28;20140;-63
2022/05/09 01:17:11;;;;;;;13.77;4.90;;;7.60;99.90;;;;;;5031314;28;20743;-62
2022/05/09 01:19:41;;;;;;;15.05;4.13;;;7.60;99.90;;;;;;5030899;28;20065;-67
2022/05/09 01:22:28;;;;;;;12.48;4.53;;;7.50;99.90;;;;;;5030086;28;20037;-61
2022/05/09 01:24:56;;;;;;;13.27;4.47;;;7.50;99.90;;;;;;5029873;28;20394;-60
2022/05/09 01:27:22;;;;;;;15.07;4.75;;;7.40;99.90;;;;;;5031129;28;20398;-62
2022/05/09 01:30:10;;;;;;;13.52;4.70;;;7.40;99.90;;;;;;5030831;28;20227;-63
2022/05/09 01:32:38;;;;;;;11.82;4.80;;;7.30;99.90;;;;;;5029973;28;20046;-66
2022/05/09 01:35:28;;;;;;;17.42;5.15;;;7.30;99.90;;;;;;5030191;28;20061;-61
2022/05/09 01:38:14;;;;;;;9.52;4.50;;;7.20;99.90;;;;;;5032981;28;20410;-62
2022/05/09 01:40:39;;;;;;;18.00;5.20;;;7.20;99.90;;;;;;5034540;28;20076;-66
2022/05/09 01:43:05;;;;;;;14.38;4.50;;;7.20;99.90;;;;;;5033656;28;20049;-61
2022/05/09 01:45:32;;;;;;;12.60;4.63;;;7.10;99.90;;;;;;5034797;28;20683;-63
2022/05/09 01:50:42;;;;;;;15.77;5.15;;;7.10;99.90;;;;;;5034171;28;20068;-64
2022/05/09 01:53:08;;;;;;;9.85;3.97;;;7.10;99.90;;;;;;5034688;28;20061;-61
2022/05/09 01:55:34;;;;;;;13.23;5.07;;;7.10;99.90;;;;;;5034548;28;20487;-61
2022/05/09 01:58:00;;;;;;;9.15;4.18;;;7.00;99.90;;;;;;5016351;28;20037;-62
2022/05/09 02:00:25;;;;;;;14.88;4.55;;;7.00;99.90;;;;;;5034447;28;20053;-61
2022/05/09 02:02:51;;;;;;;8.65;4.03;;;7.00;99.90;;;;;;5034057;28;20065;-61
2022/05/09 02:05:17;;;;;;;12.13;4.63;;;7.00;99.90;;;;;;5034342;28;20111;-61
2022/05/09 02:07:43;;;;;;;15.38;4.35;;;6.90;99.90;;;;;;5032821;28;20076;-66
2022/05/09 02:10:09;;;;;;;12.35;4.32;;;6.90;99.90;;;;;;5034464;28;20163;-62
2022/05/09 02:12:35;;;;;;;12.40;4.78;;;6.90;99.90;;;;;;5033340;28;20049;-60
2022/05/09 02:15:01;;;;;;;12.57;4.20;;;6.90;99.90;;;;;;5032336;28;20056;-60
2022/05/09 02:17:29;;;;;;;10.15;4.25;;;6.80;99.90;;;;;;5033791;28;20052;-61
2022/05/09 02:19:55;;;;;;;16.35;4.28;;;6.80;99.90;;;;;;5033501;28;20041;-61
2022/05/09 02:22:21;;;;;;;11.95;4.13;;;6.70;99.90;;;;;;5033985;28;20129;-62
2022/05/09 02:24:46;;;;;;;9.18;4.00;;;6.70;99.90;;;;;;5032562;28;20128;-61
2022/05/09 02:27:12;;;;;;;13.48;4.13;;;6.60;99.90;;;;;;5032474;28;20045;-61
2022/05/09 02:29:39;;;;;;;12.02;3.88;;;6.60;99.90;;;;;;5033983;28;20052;-61
2022/05/09 02:32:06;;;;;;;11.02;3.55;;;6.50;99.90;;;;;;5032831;28;20054;-62
2022/05/09 02:34:32;;;;;;;7.45;4.07;;;6.50;99.90;;;;;;5032890;28;20049;-61
2022/05/09 02:36:59;;;;;;;11.05;3.65;;;6.50;99.90;;;;;;5048633;28;20553;-62
2022/05/09 02:39:25;;;;;;;11.30;3.65;;;6.40;99.90;;;;;;5032210;28;20049;-60
2022/05/09 02:41:50;;;;;;;7.75;3.30;;;6.40;99.90;;;;;;5033063;28;20152;-60
2022/05/09 02:44:16;;;;;;;8.77;3.42;;;6.40;99.90;;;;;;5032588;28;20138;-61
2022/05/09 02:46:43;;;;;;;8.48;3.30;;;6.40;99.90;;;;;;5033730;28;20107;-61
2022/05/09 02:49:11;;;;;;;9.23;3.38;;;6.40;99.90;;;;;;5032537;28;20081;-63
2022/05/09 02:51:37;;;;;;;8.15;3.47;;;6.30;99.90;;;;;;5032466;28;20085;-61
2022/05/09 02:54:03;;;;;;;8.85;3.22;;;6.30;99.90;;;;;;5033245;28;20450;-63
2022/05/09 02:56:29;;;;;;;12.73;3.85;;;6.20;99.90;;;;;;5032270;28;20052;-62
2022/05/09 02:58:55;;;;;;;10.65;4.10;;;6.20;99.90;;;;;;5031761;28;20124;-61
2022/05/09 03:01:20;;;;;;;10.45;3.92;;;6.20;99.90;;;;;;5032309;28;20046;-61
2022/05/09 03:06:31;;;;;;;12.30;4.45;;;6.10;99.90;;;;;;5033262;28;20064;-61
2022/05/09 03:08:57;;;;;;;13.13;4.68;;;6.20;99.90;;;;;;5032512;28;20045;-60
2022/05/09 03:11:23;;;;;;;10.80;3.95;;;6.20;99.90;;;;;;5031973;28;20049;-62
2022/05/09 03:13:48;;;;;;;16.27;4.93;;;6.20;99.90;;;;;;5033094;28;20049;-63
2022/05/09 03:16:14;;;;;;;13.00;4.25;;;6.30;99.90;;;;;;5032434;28;20049;-61
2022/05/09 03:18:40;;;;;;;11.35;5.03;;;6.30;99.90;;;;;;5033130;28;20046;-61
2022/05/09 03:21:05;;;;;;;15.73;5.20;;;6.30;99.90;;;;;;5032517;28;20041;-61
2022/05/09 03:23:32;;;;;;;15.85;5.38;;;6.30;99.90;;;;;;5032948;28;20072;-61
2022/05/09 03:25:58;;;;;;;13.25;4.15;;;6.30;99.90;;;;;;5031206;28;20057;-61
2022/05/09 03:28:24;;;;;;;13.45;5.13;;;6.20;99.90;;;;;;5032845;28;20115;-61
2022/05/09 03:30:51;;;;;;;9.85;4.90;;;6.20;99.90;;;;;;5015061;28;20073;-61
2022/05/09 03:33:17;;;;;;;13.88;4.82;;;6.30;99.90;;;;;;5032506;28;20127;-61
2022/05/09 03:35:44;;;;;;;11.82;4.68;;;6.30;99.90;;;;;;5031626;28;20041;-60
2022/05/09 03:38:10;;;;;;;12.02;4.65;;;6.20;99.90;;;;;;5031936;28;20131;-62
2022/05/09 03:40:36;;;;;;;13.25;4.93;;;6.20;99.90;;;;;;5031251;28;20395;-60
2022/05/09 03:43:02;;;;;;;10.65;4.82;;;6.20;99.90;;;;;;5047372;28;20049;-63
2022/05/09 03:45:28;;;;;;;13.35;4.95;;;6.20;99.90;;;;;;5031188;28;20042;-61
2022/05/09 03:47:54;;;;;;;10.07;4.80;;;6.10;99.90;;;;;;5032188;28;20521;-62
2022/05/09 03:50:21;;;;;;;11.27;5.03;;;6.10;99.90;;;;;;5032240;28;20120;-61
2022/05/09 03:52:47;;;;;;;13.98;5.60;;;6.10;99.90;;;;;;5031230;28;20475;-61
2022/05/09 03:55:13;;;;;;;12.82;5.38;;;6.10;99.90;;;;;;5014401;28;20131;-62
2022/05/09 03:57:51;;;;;;;11.07;5.65;;;6.10;99.90;;;;;;5031209;28;20124;-62
2022/05/09 04:00:19;;;;;;;12.32;4.55;;;6.10;99.90;;;;;;5031015;28;20116;-61
2022/05/09 04:02:45;;;;;;;16.52;4.97;;;6.20;99.90;;;;;;5030996;28;20048;-62
2022/05/09 04:05:16;;;;;;;12.60;4.68;;;6.20;99.90;;;;;;5030465;28;20075;-60
2022/05/09 04:07:43;;;;;;;10.85;4.50;;;6.30;99.90;;;;;;5032176;28;20057;-61
2022/05/09 04:10:10;;;;;;;12.15;4.60;;;6.30;99.90;;;;;;5031627;28;20423;-61
2022/05/09 04:12:36;;;;;;;13.35;5.15;;;6.20;99.90;;;;;;5032053;28;20049;-61
2022/05/09 04:17:46;;;;;;;9.98;4.20;;;6.40;99.90;;;;;;5031945;28;20060;-62
2022/05/09 04:20:12;;;;;;;14.90;5.07;;;6.30;99.90;;;;;;5030469;28;20403;-61
2022/05/09 04:22:40;;;;;;;12.07;4.50;;;6.30;99.90;;;;;;5030848;28;20088;-62
2022/05/09 04:25:06;;;;;;;7.68;4.05;;;6.30;99.90;;;;;;5013957;28;20049;-61
2022/05/09 04:27:32;;;;;;;12.63;4.57;;;6.30;99.90;;;;;;5031740;28;20092;-61
2022/05/09 04:29:59;;;;;;;10.38;4.95;;;6.30;99.90;;;;;;5031727;28;20050;-60
2022/05/09 04:32:24;;;;;;;9.98;4.40;;;6.30;99.90;;;;;;5031165;28;20072;-62
2022/05/09 04:34:50;;;;;;;9.15;4.30;;;6.30;99.90;;;;;;5030588;28;20471;-61
2022/05/09 04:37:16;;;;;;;8.10;3.80;;;6.40;99.90;;;;;;5029894;28;20049;-62
2022/05/09 04:39:41;;;;;;;5.93;3.20;;;6.50;99.90;;;;;;5031341;28;20450;-61
2022/05/09 04:42:09;;;;;;;6.75;3.20;;;6.80;99.90;;;;;;5030927;28;20107;-61
2022/05/09 04:44:35;;;;;;;8.00;3.40;;;7.20;99.90;;;;;;5031155;28;20515;-61
2022/05/09 04:47:00;;;;;;;5.65;3.08;;;7.60;99.90;;;;;;5031556;28;20087;-61
2022/05/09 04:49:26;;;;;;;10.18;3.53;;;8.00;99.90;;;;;;5030881;28;20142;-63
2022/05/09 04:51:52;;;;;;;7.93;3.60;;;8.30;99.90;;;;;;5030586;28;20099;-62
2022/05/09 04:54:17;;;;;;;7.13;3.28;;;8.60;99.90;;;;;;5031088;28;20045;-62
2022/05/09 04:56:43;;;;;;;8.77;3.38;;;9.10;99.90;;;;;;5031236;28;20045;-62
2022/05/09 04:59:09;;;;;;;8.10;3.70;;;9.60;99.90;;;;;;5029831;28;20438;-62
2022/05/09 05:01:34;;;;;;;8.98;4.18;;;10.20;99.90;;;;;;5031503;28;20632;-62
2022/05/09 05:04:00;;;;;;;11.07;4.70;;;10.70;99.90;;;;;;5030126;28;20180;-61
2022/05/09 05:06:26;;;;;;;7.85;3.55;;;11.20;99.90;;;;;;5030911;28;20124;-61
2022/05/09 05:08:51;;;;;;;9.82;3.97;;;11.60;99.90;;;;;;5030183;28;20446;-61
2022/05/09 05:11:17;;;;;;;9.50;4.40;;;12.00;99.90;;;;;;5031496;28;20052;-61
2022/05/09 05:13:43;;;;;;;9.88;4.50;;;12.40;99.90;;;;;;5035666;28;20440;-61
2022/05/09 05:16:09;;;;;;;12.32;4.65;;;12.70;99.90;;;;;;5034034;28;20394;-66
2022/05/09 05:18:34;;;;;;;12.23;4.57;;;12.90;99.90;;;;;;5034251;28;20175;-61
2022/05/09 05:21:11;;;;;;;11.98;4.32;;;13.10;99.90;;;;;;5017405;28;20479;-62
2022/05/09 05:23:38;;;;;;;10.93;4.10;;;13.40;99.90;;;;;;5050763;28;20041;-62
2022/05/09 05:26:04;;;;;;;9.90;4.40;;;13.60;99.90;;;;;;5050422;28;20045;-62
2022/05/09 05:28:32;;;;;;;14.18;4.28;;;14.00;99.90;;;;;;5034453;28;20049;-62
2022/05/09 05:31:18;;;;;;;10.05;4.28;;;14.30;99.90;;;;;;5034891;28;20092;-62
2022/05/09 05:33:44;;;;;;;10.48;4.45;;;14.70;99.90;;;;;;5035002;28;20488;-61
2022/05/09 05:36:10;;;;;;;9.90;4.18;;;15.10;99.90;;;;;;5034635;28;20045;-67
2022/05/09 05:38:36;;;;;;;13.50;4.40;;;15.30;99.90;;;;;;5033260;28;20115;-64
2022/05/09 05:41:02;;;;;;;11.57;4.00;;;15.80;99.90;;;;;;5000785;28;20049;-63
2022/05/09 05:43:28;;;;;;;12.27;4.13;;;16.30;99.90;;;;;;5033155;28;20092;-63
2022/05/09 05:45:55;;;;;;;10.55;3.50;;;16.60;99.90;;;;;;5034599;28;20084;-64
2022/05/09 05:48:21;;;;;;;11.07;3.70;;;17.00;99.90;;;;;;5034116;28;20426;-63
2022/05/09 05:50:47;;;;;;;11.52;3.40;;;17.40;99.90;;;;;;5033564;28;20115;-62
2022/05/09 05:53:13;;;;;;;12.30;4.15;;;17.40;99.90;;;;;;5033187;28;20053;-67
2022/05/09 05:55:38;;;;;;;10.82;4.10;;;17.30;99.90;;;;;;5034531;28;20045;-63
2022/05/09 05:58:04;;;;;;;11.60;3.65;;;17.60;99.90;;;;;;5034473;28;20041;-62
2022/05/09 06:00:30;;;;;;;9.52;4.28;;;17.90;99.90;;;;;;5033907;28;20073;-61
2022/05/09 06:02:55;;;;;;;11.05;3.92;;;18.00;99.90;;;;;;5033262;28;20386;-62
2022/05/09 06:05:21;;;;;;;10.68;3.92;;;17.90;99.90;;;;;;5032734;28;20132;-61
2022/05/09 06:07:52;;;;;;;11.82;4.00;;;18.10;99.90;;;;;;5034210;28;20049;-62
2022/05/09 06:10:18;;;;;;;12.57;3.95;;;18.70;99.90;;;;;;5016761;28;20049;-62
2022/05/09 06:12:44;;;;;;;9.27;3.83;;;19.00;99.40;;;;;;5034085;28;20055;-63
2022/05/09 06:15:25;;;;;;;10.57;3.67;;;18.90;98.80;;;;;;5034153;28;20101;-63
2022/05/09 06:17:51;;;;;;;11.27;3.75;;;18.80;99.20;;;;;;5034005;28;20049;-62
2022/05/09 06:20:18;;;;;;;9.35;3.92;;;19.00;98.00;;;;;;5033569;28;20041;-67
2022/05/09 06:22:43;;;;;;;13.95;3.97;;;19.10;98.80;;;;;;5032168;28;20049;-62
2022/05/09 06:25:14;;;;;;;9.82;3.95;;;19.40;98.40;;;;;;5034119;28;20053;-62
2022/05/09 06:27:41;;;;;;;12.70;3.78;;;19.70;97.40;;;;;;5033664;28;20037;-63
2022/05/09 06:30:11;;;;;;;11.70;4.38;;;20.00;96.50;;;;;;5032367;28;20060;-62
2022/05/09 06:32:37;;;;;;;11.90;4.13;;;20.40;95.80;;;;;;5031999;28;20057;-62
2022/05/09 06:35:07;;;;;;;13.95;4.47;;;20.90;94.80;;;;;;5032640;28;20138;-62
2022/05/09 06:37:34;;;;;;;14.35;4.53;;;20.80;95.70;;;;;;5033015;28;20115;-62
2022/05/09 06:40:01;;;;;;;12.80;4.60;;;20.90;94.10;;;;;;5033541;28;20093;-62
2022/05/09 06:42:29;;;;;;;13.13;4.10;;;20.90;94.20;;;;;;5033258;28;20124;-63
2022/05/09 06:44:55;;;;;;;12.68;4.45;;;20.80;94.30;;;;;;5049048;28;20133;-61
2022/05/09 06:47:21;;;;;;;10.45;4.30;;;21.10;94.40;;;;;;5031887;28;20518;-66
2022/05/09 06:49:47;;;;;;;10.73;3.75;;;21.40;93.40;;;;;;5032227;28;20053;-61
2022/05/09 06:52:13;;;;;;;12.15;4.65;;;21.80;93.80;;;;;;5032074;28;20056;-63
2022/05/09 06:54:39;;;;;;;12.63;4.07;;;21.90;92.40;;;;;;5032950;28;20482;-62
2022/05/09 06:57:05;;;;;;;11.93;4.20;;;22.50;92.80;;;;;;5033325;28;20049;-62
2022/05/09 06:59:32;;;;;;;10.20;3.63;;;22.80;91.20;;;;;;5032843;28;20052;-63
2022/05/09 07:01:58;;;;;;;12.25;4.28;;;23.20;91.30;;;;;;5033210;28;20045;-63
2022/05/09 07:04:23;;;;;;;12.10;3.95;;;23.00;89.80;;;;;;5032860;28;20041;-67
2022/05/09 07:06:49;;;;;;;8.55;3.63;;;23.50;90.20;;;;;;5033271;28;20081;-62
2022/05/09 07:09:15;;;;;;;9.32;4.05;;;23.90;89.80;;;;;;5033172;28;20165;-63
2022/05/09 07:11:42;;;;;;;10.27;4.00;;;23.90;89.60;;;;;;5032628;28;20069;-64
2022/05/09 07:14:08;;;;;;;11.57;4.45;;;24.10;87.50;;;;;;5033098;28;20060;-63
2022/05/09 07:16:36;;;;;;;11.85;3.83;;;24.50;84.90;;;;;;5032534;28;20136;-62
2022/05/09 07:19:04;;;;;;;10.80;4.22;;;25.00;86.10;;;;;;5032757;28;20076;-64
2022/05/09 07:21:30;;;;;;;12.77;4.22;;;25.10;81.10;;;;;;5029891;28;20057;-64
2022/05/09 07:23:56;;;;;;;12.15;4.32;;;25.20;81.10;;;;;;5030469;28;20079;-64
2022/05/09 07:26:21;;;;;;;13.40;4.50;;;25.50;78.80;;;;;;5014080;28;20042;-66
2022/05/09 07:28:47;;;;;;;10.27;4.28;;;25.90;77.30;;;;;;5031255;28;20124;-64
2022/05/09 07:31:13;;;;;;;10.60;4.85;;;25.70;79.70;;;;;;5031614;28;20046;-63
2022/05/09 07:33:39;;;;;;;12.32;4.65;;;25.60;79.00;;;;;;5030789;28;20502;-62
2022/05/09 07:36:05;;;;;;;10.52;4.40;;;25.70;78.60;;;;;;5029663;28;20045;-61
2022/05/09 07:38:31;;;;;;;8.32;4.18;;;25.80;79.20;;;;;;5029378;28;20049;-62
2022/05/09 07:40:57;;;;;;;13.70;4.50;;;25.80;76.20;;;;;;5032099;28;20049;-64
2022/05/09 07:43:26;;;;;;;13.07;4.75;;;26.40;76.70;;;;;;5032305;28;20045;-63
2022/05/09 07:45:54;;;;;;;13.52;4.88;;;26.80;74.60;;;;;;5031563;28;20541;-63
2022/05/09 07:48:21;;;;;;;15.38;4.38;;;26.80;74.50;;;;;;5031199;28;20380;-64
2022/05/09 07:50:47;;;;;;;13.25;5.07;;;27.30;73.10;;;;;;5031792;28;20095;-63
2022/05/09 07:53:18;;;;;;;9.30;3.92;;;27.60;72.20;;;;;;5031060;28;20056;-62
2022/05/09 07:55:51;;;;;;;12.85;4.60;;;27.70;70.60;;;;;;5159897;27;20106;-63
2022/05/09 07:58:18;;;;;;;10.18;3.80;;;28.20;70.40;;;;;;5169421;27;20046;-63
2022/05/09 08:00:45;;;;;;;14.35;4.05;;;28.30;67.70;;;;;;5163897;27;20111;-65
2022/05/09 08:03:21;;;;;;;9.73;3.90;;;28.40;66.60;;;;;;5165955;27;20454;-63
2022/05/09 08:05:48;;;;;;;10.65;4.10;;;28.60;66.60;;;;;;5167521;27;20452;-64
2022/05/09 08:08:14;;;;;;;10.20;4.10;;;29.00;65.60;;;;;;5121616;27;20133;-63
2022/05/09 08:10:41;;;;;;;10.48;3.55;;;28.70;65.20;;;;;;5147923;27;20141;-63
2022/05/09 08:13:07;;;;;;;9.00;3.70;;;28.90;63.60;;;;;;5141540;27;20137;-62
2022/05/09 08:15:34;;;;;;;12.50;4.38;;;29.10;63.20;;;;;;5149757;27;20035;-68
2022/05/09 08:18:01;;;;;;;14.23;4.32;;;29.60;62.70;;;;;;5150096;27;20041;-62
2022/05/09 08:20:30;;;;;;;12.95;4.55;;;29.70;61.90;;;;;;5169394;27;20095;-66
2022/05/09 08:23:09;;;;;;;11.27;4.00;;;29.70;61.70;;;;;;5146279;27;20034;-62
2022/05/09 08:25:36;;;;;;;15.98;4.22;;;30.40;61.90;;;;;;5134484;27;20069;-69
2022/05/09 08:28:02;;;;;;;13.93;3.92;;;30.30;60.10;;;;;;5150348;27;20554;-63
2022/05/09 08:30:33;;;;;;;8.52;3.28;;;30.30;60.70;;;;;;5168873;27;20057;-63
2022/05/09 08:33:26;;;;;;;12.57;3.80;;;30.60;60.70;;;;;;5149617;27;20047;-63
2022/05/09 08:35:54;;;;;;;10.88;3.50;;;30.60;59.20;;;;;;5145239;27;20090;-62
2022/05/09 08:38:21;;;;;;;11.65;3.65;;;30.80;59.10;;;;;;5146994;27;20118;-64
2022/05/09 08:41:09;;;;;;;9.07;3.30;;;30.90;58.80;;;;;;5166925;27;20046;-63
2022/05/09 08:43:59;;;;;;;10.32;3.03;;;30.70;57.30;;;;;;5149323;27;20097;-68
2022/05/09 08:46:43;;;;;;;11.18;3.40;;;30.80;57.80;;;;;;5147155;27;20076;-64
2022/05/09 08:49:18;;;;;;;11.18;3.55;;;30.40;56.20;;;;;;5148388;27;20051;-63
2022/05/09 08:52:04;;;;;;;9.90;3.33;;;30.10;56.00;;;;;;5147328;27;20440;-64
2022/05/09 08:54:30;;;;;;;10.25;3.13;;;30.10;56.30;;;;;;5150991;27;20161;-64
2022/05/09 08:57:04;;;;;;;9.45;3.50;;;29.90;56.90;;;;;;5149319;27;20065;-64
2022/05/09 08:59:44;;;;;;;10.52;3.25;;;29.40;55.80;;;;;;5150704;27;20047;-64
2022/05/09 09:02:27;;;;;;;9.60;3.28;;;28.60;55.80;;;;;;5155510;27;20174;-62
2022/05/09 09:04:55;;;;;;;9.82;3.17;;;28.50;56.10;;;;;;5151144;27;20051;-63
2022/05/09 09:07:30;;;;;;;9.63;3.35;;;29.10;55.50;;;;;;5123687;27;20055;-64
2022/05/09 09:10:18;;;;;;;9.75;3.13;;;29.60;55.40;;;;;;5134523;27;20046;-63
2022/05/09 09:13:14;;;;;;;9.30;2.78;;;29.60;53.30;;;;;;5133289;27;20043;-64
2022/05/09 09:15:52;;;;;;;7.97;2.97;;;29.80;53.20;;;;;;5134366;27;20094;-70
2022/05/09 09:18:44;;;;;;;9.27;3.00;;;29.80;52.90;;;;;;5122604;27;20122;-63
2022/05/09 09:21:22;;;;;;;8.82;2.97;;;30.10;53.50;;;;;;5133483;27;20046;-63
2022/05/09 09:24:23;;;;;;;8.18;2.97;;;30.00;52.70;;;;;;5118303;27;20039;-64
2022/05/09 09:27:12;;;;;;;7.13;2.95;;;29.70;53.60;;;;;;5120555;27;20051;-64
2022/05/09 09:29:45;;;;;;;9.10;3.13;;;29.60;52.50;;;;;;5133419;27;20345;-65
2022/05/09 09:32:14;;;;;;;8.45;2.70;;;29.90;53.80;;;;;;5115042;27;20075;-62
2022/05/09 09:34:48;;;;;;;7.90;3.17;;;30.10;52.70;;;;;;5114819;27;20055;-63
2022/05/09 09:37:18;;;;;;;10.13;3.17;;;30.10;52.10;;;;;;5139379;27;20122;-64
2022/05/09 09:39:44;;;;;;;8.85;2.72;;;29.60;51.00;;;;;;5133147;27;20054;-69
2022/05/09 09:42:10;;;;;;;9.18;2.55;;;29.20;51.60;;;;;;5133918;27;20047;-62
2022/05/09 09:44:38;;;;;;;7.63;2.92;;;28.70;50.40;;;;;;5131731;27;20070;-63
2022/05/09 09:47:33;;;;;;;6.85;2.50;;;28.10;49.90;;;;;;5142427;27;20045;-63
2022/05/09 09:50:28;;;;;;;9.57;3.00;;;27.70;51.20;;;;;;5135115;27;20566;-62
2022/05/09 09:52:57;;;;;;;7.80;2.60;;;27.60;51.50;;;;;;5136802;27;20047;-63
2022/05/09 09:55:36;;;;;;;7.88;2.80;;;27.30;51.30;;;;;;5153346;27;20062;-63
2022/05/09 09:58:25;;;;;;;15.63;2.75;;;26.80;51.10;;;;;;5125331;27;20039;-63
2022/05/09 10:01:21;;;;;;;9.60;3.22;;;26.10;53.20;;;;;;5132038;27;20039;-63
2022/05/09 10:04:03;;;;;;;8.20;2.97;;;25.80;53.10;;;;;;5137021;27;20074;-65
2022/05/09 10:06:29;;;;;;;11.27;3.20;;;25.50;53.20;;;;;;5132905;27;20403;-64
2022/05/09 10:09:06;;;;;;;10.88;3.25;;;25.20;53.90;;;;;;5140489;27;20121;-63
2022/05/09 10:11:33;;;;;;;11.55;3.08;;;24.90;54.70;;;;;;5150139;27;20050;-63
2022/05/09 10:14:02;;;;;;;8.88;2.70;;;24.60;55.70;;;;;;5151976;27;20145;-62
2022/05/09 10:16:33;;;;;;;9.68;2.80;;;24.60;55.40;;;;;;5134985;27;20047;-62
2022/05/09 10:19:07;;;;;;;8.95;3.10;;;24.80;54.70;;;;;;5120184;27;20050;-64
2022/05/09 10:24:51;;;;;;;7.63;3.20;;;24.90;53.30;;;;;;5152489;27;20058;-63
2022/05/09 10:27:23;;;;;;;11.25;2.90;;;24.80;53.20;;;;;;5117284;27;20050;-61
2022/05/09 10:29:58;;;;;;;9.95;3.00;;;24.90;54.00;;;;;;5151579;27;20047;-66
2022/05/09 10:32:52;;;;;;;7.13;2.95;;;25.10;53.30;;;;;;5151157;27;20115;-62
2022/05/09 10:35:23;;;;;;;8.95;2.83;;;25.20;54.50;;;;;;5133507;27;20027;-62
2022/05/09 10:37:58;;;;;;;8.05;2.85;;;25.10;54.30;;;;;;5133714;27;20049;-62
2022/05/09 10:40:34;;;;;;;11.82;2.83;;;25.10;54.60;;;;;;5152513;27;20107;-62
2022/05/09 10:43:07;;;;;;;9.15;2.40;;;25.10;52.30;;;;;;5132019;27;20115;-63
2022/05/09 10:45:44;;;;;;;9.48;2.90;;;25.00;49.90;;;;;;5133468;27;20415;-63
2022/05/09 10:48:35;;;;;;;8.57;2.65;;;25.00;50.30;;;;;;5121952;27;20043;-63
2022/05/09 10:51:12;;;;;;;6.97;2.67;;;24.70;49.50;;;;;;5131346;27;20753;-62
2022/05/09 10:54:10;;;;;;;8.73;2.47;;;24.50;51.00;;;;;;5113378;27;20039;-63
2022/05/09 10:56:44;;;;;;;4.93;2.20;;;24.60;50.40;;;;;;5147675;27;20455;-62
2022/05/09 10:59:14;;;;;;;8.65;2.22;;;24.40;49.70;;;;;;5126350;27;20062;-62
2022/05/09 11:01:42;;;;;;;4.80;2.38;;;24.20;50.10;;;;;;5140139;27;20072;-63
2022/05/09 11:04:10;;;;;;;7.65;2.90;;;24.10;52.40;;;;;;5145154;27;20376;-62
2022/05/09 11:07:04;;;;;;;8.40;3.10;;;24.00;53.40;;;;;;5144436;27;20062;-61
2022/05/09 11:10:00;;;;;;;9.88;2.83;;;24.00;52.20;;;;;;5149182;27;20049;-66
2022/05/09 11:12:31;;;;;;;8.02;2.50;;;23.90;52.80;;;;;;5144824;27;20051;-62
2022/05/09 11:15:29;;;;;;;5.95;2.30;;;23.70;54.10;;;;;;5130344;27;20579;-69
2022/05/09 11:18:01;;;;;;;6.25;2.40;;;23.70;53.80;;;;;;5108472;27;20075;-67
2022/05/09 11:20:58;;;;;;;5.57;2.60;;;23.80;52.90;;;;;;5146950;27;20047;-62
2022/05/09 11:23:50;;;;;;;9.77;2.90;;;23.60;52.90;;;;;;5144566;27;20050;-62
2022/05/09 11:26:37;;;;;;;9.52;3.17;;;23.30;53.70;;;;;;5147804;27;20098;-64
2022/05/09 11:29:46;;;;;;;6.82;2.95;;;23.50;54.20;;;;;;5145551;27;20086;-64
2022/05/09 11:32:41;;;;;;;5.30;2.50;;;23.70;54.30;;;;;;5148922;27;20043;-63
2022/05/09 11:35:36;;;;;;;11.55;3.15;;;23.50;54.70;;;;;;5143380;27;20055;-64
2022/05/09 11:38:08;;;;;;;;;;;23.50;54.70;;;;;;5139631;27;20509;-61
2022/05/09 11:40:39;;;;;;;9.75;3.60;;;23.40;54.60;;;;;;5129455;27;20324;-61
2022/05/09 11:43:30;;;;;;;7.50;2.80;;;23.40;54.60;;;;;;5148639;27;20503;-62
2022/05/09 11:46:02;;;;;;;7.22;2.30;;;23.40;54.80;;;;;;5148866;27;20407;-62
2022/05/09 11:48:31;;;;;;;6.47;2.53;;;23.40;54.70;;;;;;5148406;27;20200;-63
2022/05/09 11:51:22;;;;;;;10.70;2.65;;;23.30;55.20;;;;;;5150000;27;20050;-62
2022/05/09 11:53:57;;;;;;;9.73;2.65;;;23.20;55.20;;;;;;5132985;27;20426;-63
2022/05/09 11:56:24;;;;;;;10.07;2.85;;;23.20;55.90;;;;;;5150898;27;20057;-62
2022/05/09 11:58:50;;;;;;;11.48;2.63;;;23.30;55.20;;;;;;5150534;27;20046;-63
2022/05/09 12:01:16;;;;;;;6.88;2.58;;;23.40;55.70;;;;;;5147251;27;20051;-62
2022/05/09 12:03:42;;;;;;;6.05;2.50;;;23.50;55.70;;;;;;5141032;27;20049;-62
2022/05/09 12:06:14;;;;;;;9.02;2.67;;;23.60;56.00;;;;;;5134414;27;20645;-63
2022/05/09 12:08:48;;;;;;;8.30;3.00;;;23.70;55.70;;;;;;5139634;27;20102;-62
2022/05/09 12:11:25;;;;;;;6.95;2.58;;;23.70;55.30;;;;;;5145195;27;20042;-63
2022/05/09 12:13:53;;;;;;;5.85;2.53;;;23.80;56.00;;;;;;5137919;27;20130;-62
2022/05/09 12:16:37;;;;;;;6.85;2.22;;;23.80;55.80;;;;;;5150337;27;20074;-62
2022/05/09 12:19:13;;;;;;;7.65;2.35;;;23.90;55.40;;;;;;5146881;27;20038;-62
2022/05/09 12:21:41;;;;;;;10.68;2.45;;;24.00;55.30;;;;;;5145206;27;20134;-63
2022/05/09 12:24:18;;;;;;;8.68;2.58;;;23.90;55.70;;;;;;5148017;27;20050;-65
2022/05/09 12:26:53;;;;;;;7.28;2.92;;;23.80;55.40;;;;;;5150476;27;20031;-61
2022/05/09 12:29:19;;;;;;;7.90;2.33;;;23.70;55.80;;;;;;5136193;27;20055;-62
2022/05/09 12:31:51;;;;;;;7.45;2.33;;;23.60;55.90;;;;;;5131659;27;20043;-62
2022/05/09 12:34:34;;;;;;;7.47;2.60;;;23.40;55.60;;;;;;5145429;27;20132;-62
2022/05/09 12:37:01;;;;;;;6.22;2.30;;;23.30;56.20;;;;;;5114824;27;20380;-62
2022/05/09 12:39:33;;;;;;;8.35;2.30;;;23.40;56.50;;;;;;5149278;27;20501;-63
2022/05/09 12:42:01;;;;;;;9.38;2.20;;;23.50;56.40;;;;;;5134792;27;20081;-63
2022/05/09 12:44:40;;;;;;;6.32;2.33;;;23.70;56.60;;;;;;5128652;27;20487;-63
2022/05/09 12:47:16;;;;;;;7.65;2.20;;;23.80;57.00;;;;;;5115861;27;20134;-63
2022/05/09 12:50:05;;;;;;;7.75;2.00;;;23.80;56.30;;;;;;5098764;27;20507;-61
2022/05/09 12:52:35;;;;;;;6.75;2.15;;;23.80;56.20;;;;;;5131901;27;20458;-62
2022/05/09 12:57:46;;;;;;;7.18;2.53;;;23.50;57.00;;;;;;5153848;27;20463;-61
2022/05/09 13:00:17;;;;;;;8.25;2.55;;;23.60;56.90;;;;;;5154169;27;20141;-63
2022/05/09 13:02:44;;;;;;;8.70;2.17;;;23.60;57.00;;;;;;5118342;27;20051;-61
2022/05/09 13:05:13;;;;;;;5.25;2.28;;;23.70;57.10;;;;;;5153652;27;20049;-65
2022/05/09 13:08:02;;;;;;;7.60;2.58;;;23.60;57.40;;;;;;5153512;27;20466;-61
2022/05/09 13:10:30;;;;;;;5.53;2.33;;;23.60;56.90;;;;;;5153555;27;20043;-61
2022/05/09 13:13:02;;;;;;;8.02;2.53;;;23.70;56.80;;;;;;5135864;27;20038;-61
2022/05/09 13:15:29;;;;;;;5.72;2.20;;;23.60;56.60;;;;;;5134099;27;20049;-61
2022/05/09 13:18:06;;;;;;;6.13;2.20;;;23.60;56.90;;;;;;5153742;27;20042;-61